Hlavní strana
METAR-TAF:

METAR-TAF

Letiště :

Letecká základna

Tulln an der Donau, Rakousko

zeměpisná šířka: 48-19N, zeměpisná délka: 016-07E, výška: 175 m

METAR: chybějící

Čas: 18:49 (16:49 UTC)

Předpověď počasí

Zpráva byla vytvořena před 5 hodinami a 34 minutami, v 11:15 UTC
Předpověď platná od 27 v 12 UTC do 27 v 21 UTC
Jihovýchodní vítr 8 kt
Viditelnost 10 km a více
Skoro jasno ve výšce 5000 ft
Polojasno ve výšce 12000 ft
Pravděpodobnost 30% :
Dočasný
od 27 v 12 UTC do 27 v 15 UTC
Oblačno až skoro zataženo ve výšce 5000 ft
Skoro jasno ve výšce 5000 ft, Cumulonimbus.
bouřka, déšť,

TAF: LOXT 271115Z 2712/2721 14008KT 9999 FEW050 SCT120 PROB30 TEMPO 2712/2715 TSRA BKN050 FEW050CB

Stav a předpovědi počasí z více než 4 000 letišť (zprávy METAR a TAF).

Červené a žluté tečky na mapě představují dostupné meteorologické stanice.

Když kurzor umístíte na tečku, zobrazí se název stanice.

Pak kliknutím zobrazíte stav a předpověď počasí.

Chcete-li změnit mapu, kliknutím na zelené tlačítko se znaménkem +mapu přiblížíte, kliknutím na zelené tlačítko se znaménkem – mapu oddálíte a kliknutím na zelené šipky přejdete na sousední mapy.


METAR-TAF: